Time;durP1;ratioP1;P1;durP2;ratioP2;P2;SDS_P1;SDS_P2;PMS_P1;PMS_P2;Temp;Humidity;BMP_temperature;BMP_pressure;BME280_temperature;BME280_humidity;BME280_pressure;Samples;Min_cycle;Max_cycle;Signal;HPM_P1;HPM_P2
2022/09/01 04:09:58;;;;;;;;;;;17.50;1.00;;;;;;6272265;22;19949;-85
2022/09/01 04:12:26;;;;;;;;;;;17.40;1.00;;;;;;6249553;22;20385;-85
2022/09/01 04:14:52;;;;;;;;;;;17.40;1.00;;;;;;6219524;23;20328;-85
2022/09/01 04:20:08;;;;;;;;;;;17.30;1.00;;;;;;6246689;23;19915;-83
2022/09/01 04:22:36;;;;;;;;;;;17.30;1.00;;;;;;6245669;23;19990;-84
2022/09/01 04:25:04;;;;;;;;;;;17.40;1.00;;;;;;6220585;23;19967;-88
2022/09/01 04:27:44;;;;;;;;;;;17.50;1.00;;;;;;6221081;23;20243;-92
2022/09/01 13:52:33;;;;;;;;;;;24.20;1.00;;;;;;6272020;22;20299;-85
2022/09/01 13:55:00;;;;;;;;;;;24.40;1.00;;;;;;6279209;22;19918;-84
2022/09/01 13:57:27;;;;;;;;;;;24.20;1.00;;;;;;6278318;22;19915;-87
2022/09/01 14:00:02;;;;;;;;;;;24.10;1.00;;;;;;6280273;22;19997;-85
2022/09/01 14:02:39;;;;;;;;;;;24.30;1.00;;;;;;6293971;22;19931;-88
2022/09/01 14:38:26;;;;;;;;;;;25.90;1.00;;;;;;6217780;23;20007;-85
2022/09/01 14:40:53;;;;;;;;;;;25.50;1.00;;;;;;6217109;23;20336;-86
2022/09/01 14:43:20;;;;;;;;;;;25.50;1.00;;;;;;6217294;23;20296;-86
2022/09/01 14:45:48;;;;;;;;;;;26.00;1.00;;;;;;6216660;23;20018;-85
2022/09/01 14:48:16;;;;;;;;;;;26.30;1.00;;;;;;6216852;23;19927;-86
2022/09/01 14:50:44;;;;;;;;;;;26.00;1.00;;;;;;6216844;23;20328;-85
2022/09/01 14:53:11;;;;;;;;;;;26.10;1.00;;;;;;6184901;23;19923;-85
2022/09/01 14:55:38;;;;;;;;;;;26.50;1.00;;;;;;6217194;23;19920;-86
2022/09/01 14:58:04;;;;;;;;;;;26.40;1.00;;;;;;6186172;23;19916;-85
2022/09/01 15:00:34;;;;;;;;;;;26.60;1.00;;;;;;6216688;23;20395;-86
2022/09/01 15:03:01;;;;;;;;;;;27.10;1.00;;;;;;6185113;23;19916;-84
2022/09/01 15:05:28;;;;;;;;;;;27.30;1.00;;;;;;6190870;23;19964;-87
2022/09/01 15:16:49;;;;;;;;;;;;;;;;;;;;;
2022/09/01 15:20:49;;;;;;;;;;;27.60;1.00;;;;;;5983152;23;20390;-90
2022/09/01 15:25:04;;;;;;;;;;;;;;;;;;;;;
2022/09/01 15:29:03;;;;;;;;;;;27.70;1.00;;;;;;6095421;23;19921;-89
2022/09/01 15:32:22;;;;;;;;;;;28.20;1.00;;;;;;6025212;23;19940;-88
2022/09/01 15:38:59;;;;;;;;;;;27.70;1.00;;;;;;6032582;23;19924;-90
2022/09/01 15:41:58;;;;;;;;;;;28.00;1.00;;;;;;6067281;23;19917;-90
2022/09/01 15:45:05;;;;;;;;;;;27.80;1.00;;;;;;6073840;23;19917;-88
2022/09/01 15:48:09;;;;;;;;;;;27.90;1.00;;;;;;6010225;23;20008;-88
2022/09/01 15:51:18;;;;;;;;;;;28.60;1.00;;;;;;5988911;23;19918;-88
2022/09/01 15:55:08;;;;;;;;;;;28.10;1.00;;;;;;5816444;24;19920;-88
2022/09/01 15:58:49;;;;;;;;;;;28.50;1.00;;;;;;5845686;24;19993;-90
2022/09/01 16:02:22;;;;;;;;;;;28.30;1.00;;;;;;5924957;23;20002;-88
2022/09/01 16:08:42;;;;;;;;;;;27.20;1.00;;;;;;6039661;23;20277;-87
2022/09/01 16:11:43;;;;;;;;;;;27.20;1.00;;;;;;6069335;23;20422;-90
2022/09/01 16:14:50;;;;;;;;;;;26.90;1.00;;;;;;5998262;23;20368;-85
2022/09/01 16:17:31;;;;;;;;;;;26.70;1.00;;;;;;6009549;23;19942;-85
2022/09/01 16:20:00;;;;;;;;;;;26.10;1.00;;;;;;6010570;23;20339;-85
2022/09/01 16:22:30;;;;;;;;;;;26.20;1.00;;;;;;5986694;23;19986;-86
2022/09/01 16:25:03;;;;;;;;;;;25.80;1.00;;;;;;5988095;23;20327;-84
2022/09/01 16:31:30;;;;;;;;;;;25.40;1.00;;;;;;6078670;23;20297;-85
2022/09/01 16:34:08;;;;;;;;;;;26.20;1.00;;;;;;6101753;23;19917;-90
2022/09/01 16:36:44;;;;;;;;;;;26.00;1.00;;;;;;6103147;23;19917;-90
2022/09/01 16:39:11;;;;;;;;;;;25.70;1.00;;;;;;6112877;23;19917;-88
2022/09/01 16:41:42;;;;;;;;;;;24.90;1.00;;;;;;6128170;23;19904;-86
2022/09/01 16:44:42;;;;;;;;;;;25.10;1.00;;;;;;6134413;23;19962;-87
2022/09/01 16:47:19;;;;;;;;;;;24.70;1.00;;;;;;6151760;22;19905;-86
2022/09/01 16:50:03;;;;;;;;;;;24.90;1.00;;;;;;6251826;22;19911;-85
2022/09/01 16:52:37;;;;;;;;;;;25.40;1.00;;;;;;6256574;22;19967;-87
2022/09/01 16:55:22;;;;;;;;;;;25.40;1.00;;;;;;6284333;22;19915;-89
2022/09/01 16:58:01;;;;;;;;;;;24.80;1.00;;;;;;6246847;23;19916;-88
2022/09/01 17:00:35;;;;;;;;;;;24.30;1.00;;;;;;6249992;22;19916;-88
2022/09/01 17:03:11;;;;;;;;;;;24.70;1.00;;;;;;6221595;23;19923;-91
2022/09/01 17:05:47;;;;;;;;;;;24.70;1.00;;;;;;6246471;23;19919;-89
2022/09/01 17:08:14;;;;;;;;;;;23.90;1.00;;;;;;6273566;22;19915;-89
2022/09/01 17:10:45;;;;;;;;;;;24.20;1.00;;;;;;6220901;23;19916;-87
2022/09/01 17:13:18;;;;;;;;;;;24.00;1.00;;;;;;6247215;22;20288;-88
2022/09/01 17:16:00;;;;;;;;;;;24.20;1.00;;;;;;6278785;22;19949;-87
2022/09/01 17:18:33;;;;;;;;;;;24.40;1.00;;;;;;6226667;22;19989;-90
2022/09/01 17:21:07;;;;;;;;;;;24.20;1.00;;;;;;6245835;23;20374;-86
2022/09/01 17:23:37;;;;;;;;;;;24.10;1.00;;;;;;6252203;22;19994;-89
2022/09/01 17:26:08;;;;;;;;;;;24.10;1.00;;;;;;6221194;23;20323;-89
2022/09/01 17:28:46;;;;;;;;;;;24.10;1.00;;;;;;6247258;23;19915;-90
2022/09/01 17:31:17;;;;;;;;;;;23.60;1.00;;;;;;6247371;22;19915;-88
2022/09/01 17:33:47;;;;;;;;;;;23.70;1.00;;;;;;6245768;23;19927;-89
2022/09/01 17:36:14;;;;;;;;;;;23.60;1.00;;;;;;6247840;22;20362;-88
2022/09/01 17:38:52;;;;;;;;;;;23.50;1.00;;;;;;6248978;23;19946;-87
2022/09/01 17:41:33;;;;;;;;;;;23.50;1.00;;;;;;6276057;22;20338;-86
2022/09/01 17:44:11;;;;;;;;;;;23.60;1.00;;;;;;6246948;23;19947;-88
2022/09/01 17:50:11;;;;;;;;;;;23.60;1.00;;;;;;6252349;22;19937;-89
2022/09/01 17:52:57;;;;;;;;;;;23.30;1.00;;;;;;6279935;22;19922;-89
2022/09/01 17:55:39;;;;;;;;;;;23.20;1.00;;;;;;6251988;22;19951;-85
2022/09/01 17:58:12;;;;;;;;;;;23.20;1.00;;;;;;6247551;23;19916;-88
2022/09/01 18:00:46;;;;;;;;;;;22.90;1.00;;;;;;6248109;23;19915;-90
2022/09/01 18:03:31;;;;;;;;;;;22.90;1.00;;;;;;6248854;22;19915;-90
2022/09/01 18:06:08;;;;;;;;;;;23.10;1.00;;;;;;6223332;23;19998;-87
2022/09/01 18:08:39;;;;;;;;;;;23.00;1.00;;;;;;6247662;23;19941;-90
2022/09/01 18:11:11;;;;;;;;;;;23.10;1.00;;;;;;6222446;22;19954;-86
2022/09/01 18:13:38;;;;;;;;;;;23.20;1.00;;;;;;6278348;22;20002;-87
2022/09/01 18:16:20;;;;;;;;;;;22.90;1.00;;;;;;6226517;22;19994;-88
2022/09/01 18:18:49;;;;;;;;;;;22.90;1.00;;;;;;6276212;22;19915;-86
2022/09/01 18:21:16;;;;;;;;;;;22.80;1.00;;;;;;6242722;22;19972;-87
